Lawrence, Kansas
Current Conditions -  °F | °C
As of 3:52 PM on Sunday 25 Jan 2015 (Local Time) from KLWC Reporting Station
Overcast Overcast  
Wind Chill: 28°   Ceiling: 1600
Heat Index: 38°   Visibility: 10mi
Dew Point: 32°   Wind: 18mph
Humidity: 79%   Direction: 340°NNW
Pressure: 30.01"   Gusts: NA
Location:  38.9718°N, 95.235°W
Report Text: KLWC 252152Z AUTO 34016KT 10SM OVC016 03/00 A3001 RMK AO2 PK WND 33028/2111 SLP164 T00330000
Loading
Personal Weather Stations






























Interactive Weather Map New forecast layout! Learn more

10-Day Weather Forecast

Advertisements
Track Severe Weather on mobile